Date,TemperatureHighF,TemperatureAvgF,TemperatureLowF,DewpointHighF,DewpointAvgF,DewpointLowF,HumidityHigh,HumidityAvg,HumidityLow,PressureMaxIn,PressureMinIn,WindSpeedMaxMPH,WindSpeedAvgMPH,GustSpeedMaxMPH,PrecipitationSumIn
2013-3-6,27.9,23.2,17.0,20.7,17.2,11.8,82,78,72,30.34,30.03,13,8,16,0.00
2013-3-7,34.5,23.5,20.3,26.4,10.9,-99.9,85,74,72,30.13,30.00,10,-72,13,0.01
2013-3-8,29.0,24.4,14.9,25.8,20.1,11.2,90,84,73,30.29,30.06,7,3,11,0.00
2013-3-9,31.6,25.0,13.8,26.8,20.0,9.3,90,81,67,30.36,30.00,9,3,14,0.01
2013-3-10,35.0,22.8,9.5,24.2,16.3,5.6,85,77,59,30.42,30.00,7,2,11,0.00
2013-3-11,35.4,28.9,18.9,27.4,21.3,13.2,81,73,58,30.28,29.89,14,8,29,0.00
2013-3-12,29.6,21.5,12.8,16.6,13.0,7.2,78,70,56,30.45,30.28,8,4,14,0.00
2013-3-13,60.3,39.5,24.5,41.6,28.6,16.4,78,66,49,30.28,29.96,11,6,15,0.00
2013-3-14,56.6,38.6,28.7,41.3,32.1,25.0,92,78,56,30.12,30.02,12,5,16,0.00
2013-3-15,29.1,23.3,12.3,25.2,19.0,7.2,86,83,80,30.30,29.94,14,6,14,0.00
2013-3-16,17.3,13.2,9.4,12.7,7.0,3.5,83,76,70,30.33,30.09,11,5,21,0.00
2013-3-17,29.2,20.3,6.0,24.9,15.8,0.1,88,82,76,30.08,29.56,15,8,31,0.00
2013-3-18,23.9,13.1,2.7,13.9,5.2,-3.1,80,71,58,30.17,29.99,10,4,24,0.01
2013-3-19,20.0,14.1,7.3,14.2,6.3,0.7,92,71,55,30.54,30.07,9,4,14,0.00
2013-3-20,38.4,28.9,8.0,20.7,15.6,2.8,79,59,41,30.37,29.95,16,9,25,0.01
2013-3-21,26.9,23.4,20.3,21.5,13.9,5.7,90,68,51,30.00,29.87,14,7,21,0.00
2013-3-22,26.8,20.2,7.2,21.5,16.0,2.9,90,84,75,30.23,29.98,7,2,12,0.21
2013-3-23,20.4,13.7,8.9,12.5,8.0,4.1,84,78,69,30.43,30.23,8,4,14,0.00
2013-3-24,21.9,14.5,6.7,15.4,9.4,2.4,83,80,74,30.55,30.41,9,4,13,0.01
2013-3-25,26.8,11.6,-3.4,17.1,5.5,-7.6,92,77,63,30.56,30.36,7,3,10,0.00
2013-3-26,41.9,25.8,8.9,27.3,17.8,5.3,87,73,54,30.35,30.13,9,2,15,0.03
2013-3-27,36.1,25.3,12.8,28.9,20.9,9.7,89,83,72,30.22,30.15,7,2,8,0.00
2013-3-28,40.6,22.3,18.0,33.4,8.1,-99.9,96,76,73,30.25,30.20,9,-117,11,0.00
2013-3-29,49.9,17.1,27.8,39.7,-39.2,-99.9,90,41,70,30.21,30.05,4,-471,5,0.00
2013-3-30,47.0,17.4,29.0,39.0,-32.7,-99.9,91,44,66,30.17,30.11,11,-478,11,0.01
2013-3-31,31.3,16.4,25.7,24.5,-27.5,-99.9,90,48,55,30.34,30.13,9,-405,9,0.04